Time;durP1;ratioP1;P1;durP2;ratioP2;P2;SDS_P1;SDS_P2;PMS_P1;PMS_P2;Temp;Humidity;BMP_temperature;BMP_pressure;BME280_temperature;BME280_humidity;BME280_pressure;Samples;Min_cycle;Max_cycle;Signal;HPM_P1;HPM_P2
2024/01/20 00:01:46;;;;;;;32.65;17.55;;;1.30;9.90;;;;;;20582081;28;20039;-39
2024/01/20 00:11:47;;;;;;;34.05;17.75;;;1.20;7.20;;;;;;20577182;28;20051;-39
2024/01/20 00:21:47;;;;;;;36.20;19.10;;;1.20;9.80;;;;;;20584167;28;20049;-39
2024/01/20 00:31:48;;;;;;;34.58;18.48;;;1.10;7.80;;;;;;20580668;28;20793;-38
2024/01/20 00:41:48;;;;;;;34.58;17.38;;;1.00;7.60;;;;;;20583144;28;20066;-39
2024/01/20 00:51:49;;;;;;;36.45;18.83;;;1.00;6.30;;;;;;20580397;28;20050;-38
2024/01/20 01:01:50;;;;;;;37.97;18.42;;;0.80;9.00;;;;;;20577862;28;20419;-39
2024/01/20 01:11:50;;;;;;;37.25;18.02;;;0.80;7.20;;;;;;20580219;28;20038;-38
2024/01/20 01:21:51;;;;;;;35.35;17.13;;;0.80;6.70;;;;;;20581804;28;20043;-39
2024/01/20 01:31:52;;;;;;;36.22;16.10;;;0.70;7.60;;;;;;20580603;28;20038;-39
2024/01/20 01:41:53;;;;;;;36.35;16.48;;;0.60;7.70;;;;;;20561691;28;20499;-39
2024/01/20 01:51:54;;;;;;;38.83;17.55;;;0.60;9.30;;;;;;20572376;28;20038;-39
2024/01/20 02:01:54;;;;;;;38.78;17.88;;;0.50;9.20;;;;;;20582686;28;20612;-39
2024/01/20 02:11:56;;;;;;;44.95;18.20;;;0.50;9.60;;;;;;20581359;28;20494;-38
2024/01/20 02:21:58;;;;;;;46.95;19.00;;;0.50;10.80;;;;;;20577657;28;20089;-39
2024/01/20 02:31:58;;;;;;;47.80;18.08;;;0.40;11.30;;;;;;20585111;28;20042;-39
2024/01/20 02:41:59;;;;;;;49.63;19.83;;;0.30;15.50;;;;;;20578638;28;20046;-39
2024/01/20 02:52:00;;;;;;;43.65;19.05;;;0.30;14.00;;;;;;20574570;28;20530;-37
2024/01/20 03:02:02;;;;;;;43.92;19.20;;;0.30;14.90;;;;;;20569884;28;20118;-39
2024/01/20 03:12:02;;;;;;;49.50;19.50;;;0.20;19.00;;;;;;20574171;28;20049;-39
2024/01/20 03:22:03;;;;;;;41.75;17.63;;;0.30;20.00;;;;;;20574578;28;20042;-39
2024/01/20 03:32:04;;;;;;;40.80;16.92;;;0.30;19.20;;;;;;20576578;28;20046;-39
2024/01/20 03:42:05;;;;;;;45.38;17.55;;;0.20;18.20;;;;;;20576552;28;20049;-39
2024/01/20 03:52:05;;;;;;;46.85;17.83;;;0.20;20.60;;;;;;20572792;28;20502;-39
2024/01/20 04:02:06;;;;;;;43.97;17.70;;;0.20;22.00;;;;;;20568817;28;20035;-38
2024/01/20 04:12:07;;;;;;;41.97;16.77;;;0.20;21.50;;;;;;20578262;28;20112;-45
2024/01/20 04:22:07;;;;;;;45.10;15.60;;;0.10;23.30;;;;;;20557472;28;20038;-38
2024/01/20 04:32:08;;;;;;;43.40;16.05;;;0.10;23.20;;;;;;20570030;28;20049;-38
2024/01/20 04:42:09;;;;;;;34.65;13.70;;;0.10;24.90;;;;;;20570959;28;20066;-39
2024/01/20 04:52:09;;;;;;;39.58;15.00;;;0.10;27.00;;;;;;20568160;28;20100;-39
2024/01/20 05:02:10;;;;;;;44.42;16.15;;;0.20;28.10;;;;;;20570972;28;20039;-42
2024/01/20 05:12:10;;;;;;;35.50;15.15;;;0.30;24.20;;;;;;20569141;28;20050;-38
2024/01/20 05:22:11;;;;;;;36.33;15.07;;;0.20;24.30;;;;;;20573749;28;20035;-38
2024/01/20 05:32:11;;;;;;;33.57;13.93;;;0.10;27.20;;;;;;20586131;28;20108;-38
2024/01/20 05:42:12;;;;;;;42.78;15.18;;;0.00;35.50;;;;;;20584693;28;20450;-38
2024/01/20 05:52:13;;;;;;;35.22;13.88;;;0.00;25.30;;;;;;20572742;28;20469;-38
2024/01/20 06:02:13;;;;;;;35.00;13.70;;;0.00;27.50;;;;;;20578622;28;20461;-38
2024/01/20 06:12:14;;;;;;;35.00;13.43;;;0.10;29.60;;;;;;20575590;28;20042;-39
2024/01/20 06:22:14;;;;;;;36.10;14.00;;;0.20;27.80;;;;;;20573239;28;20042;-38
2024/01/20 06:32:15;;;;;;;35.03;13.38;;;0.10;26.70;;;;;;20572736;28;20465;-38
2024/01/20 06:42:16;;;;;;;33.40;12.90;;;0.20;27.40;;;;;;20541337;28;1156270;-38
2024/01/20 06:52:17;;;;;;;36.65;13.48;;;0.20;25.90;;;;;;20577007;28;20042;-39
2024/01/20 07:02:18;;;;;;;31.83;12.68;;;0.20;24.70;;;;;;20569819;28;20034;-38
2024/01/20 07:12:21;;;;;;;33.53;12.55;;;0.20;26.90;;;;;;20576721;28;20511;-38
2024/01/20 07:22:21;;;;;;;34.60;13.05;;;0.20;25.80;;;;;;20576586;28;20050;-38
2024/01/20 07:32:22;;;;;;;33.80;12.60;;;0.20;22.00;;;;;;20579858;28;20093;-39
2024/01/20 07:42:23;;;;;;;31.17;12.80;;;0.20;22.20;;;;;;20570697;28;20491;-38
2024/01/20 07:52:23;;;;;;;31.27;11.43;;;0.20;21.50;;;;;;20576170;28;20446;-38
2024/01/20 08:02:24;;;;;;;34.03;13.88;;;0.20;22.90;;;;;;20570504;28;20070;-38
2024/01/20 08:12:25;;;;;;;32.38;12.70;;;0.30;23.00;;;;;;20578095;28;20462;-38
2024/01/20 08:22:25;;;;;;;30.80;13.48;;;0.40;23.80;;;;;;20572600;28;20043;-38
2024/01/20 08:32:26;;;;;;;35.45;13.57;;;0.40;22.10;;;;;;20568188;28;20510;-38
2024/01/20 08:42:27;;;;;;;37.17;14.50;;;0.40;21.90;;;;;;20545907;28;20043;-38
2024/01/20 08:52:27;;;;;;;37.00;15.33;;;0.50;24.50;;;;;;20563137;28;21040;-38
2024/01/20 09:02:28;;;;;;;37.50;16.20;;;0.50;31.50;;;;;;20564382;28;20450;-38
2024/01/20 09:12:29;;;;;;;39.45;14.32;;;0.50;31.20;;;;;;20568464;28;20759;-38
2024/01/20 09:22:30;;;;;;;37.47;15.98;;;0.50;38.40;;;;;;20561228;28;20469;-38
2024/01/20 09:32:33;;;;;;;38.20;15.83;;;0.60;48.30;;;;;;20565235;28;20422;-38
2024/01/20 09:42:34;;;;;;;41.45;15.38;;;0.70;49.20;;;;;;20555442;28;20470;-37
2024/01/20 09:53:10;;;;;;;35.88;14.95;;;0.80;50.90;;;;;;20563751;28;20050;-38
2024/01/20 10:03:12;;;;;;;33.22;14.60;;;0.90;50.60;;;;;;20562964;28;20479;-37
2024/01/20 10:13:13;;;;;;;35.78;13.88;;;1.10;48.30;;;;;;20572838;28;20050;-38
2024/01/20 10:23:14;;;;;;;30.88;13.52;;;1.30;37.80;;;;;;20589557;28;20027;-39
2024/01/20 10:33:15;;;;;;;34.22;13.52;;;1.40;26.10;;;;;;20589292;28;20057;-38
2024/01/20 10:43:15;;;;;;;28.63;13.20;;;1.50;19.30;;;;;;20584014;28;20089;-38
2024/01/20 10:53:16;;;;;;;31.20;13.10;;;1.60;16.90;;;;;;20587170;28;20462;-39
2024/01/20 11:03:17;;;;;;;27.75;11.82;;;1.60;15.10;;;;;;20591337;28;20559;-39
2024/01/20 11:13:18;;;;;;;28.58;11.35;;;1.80;9.30;;;;;;20576157;28;20042;-38
2024/01/20 11:23:18;;;;;;;31.20;12.40;;;2.00;5.40;;;;;;20573886;28;20050;-39
2024/01/20 11:33:19;;;;;;;28.63;12.68;;;2.10;4.90;;;;;;20556745;28;21040;-39
2024/01/20 11:43:21;;;;;;;30.23;13.70;;;2.10;1.00;;;;;;20583207;28;20049;-38
2024/01/20 11:53:22;;;;;;;41.38;19.10;;;2.10;1.00;;;;;;20598618;28;20454;-39
2024/01/20 12:03:23;;;;;;;40.35;18.27;;;2.20;1.00;;;;;;20589058;28;20039;-39
2024/01/20 12:13:25;;;;;;;28.95;13.23;;;2.40;1.00;;;;;;20586143;28;20043;-38
2024/01/20 12:23:26;;;;;;;36.10;17.23;;;2.90;1.00;;;;;;20568992;28;20128;-39
2024/01/20 12:33:27;;;;;;;30.67;14.98;;;3.00;1.00;;;;;;20580088;28;20427;-39
2024/01/20 12:43:28;;;;;;;30.80;14.95;;;3.20;1.00;;;;;;20566757;28;20034;-38
2024/01/20 12:53:28;;;;;;;33.20;15.75;;;3.40;1.00;;;;;;20569133;28;20132;-38
2024/01/20 13:03:29;;;;;;;30.83;15.00;;;3.20;1.00;;;;;;20565605;28;20078;-39
2024/01/20 13:13:29;;;;;;;30.73;13.93;;;3.00;1.00;;;;;;20546202;28;20512;-39
2024/01/20 13:23:30;;;;;;;25.63;13.70;;;3.80;1.00;;;;;;20555802;28;20074;-38
2024/01/20 13:33:31;;;;;;;25.02;12.95;;;3.80;1.00;;;;;;20569014;28;20324;-39
2024/01/20 13:43:32;;;;;;;24.67;12.32;;;3.80;1.00;;;;;;20563564;28;20086;-40
2024/01/20 13:53:33;;;;;;;24.15;11.90;;;3.80;1.00;;;;;;20580687;28;20417;-39
2024/01/20 14:03:33;;;;;;;24.50;11.23;;;3.90;1.00;;;;;;20574489;28;20395;-39
2024/01/20 14:13:34;;;;;;;23.67;11.57;;;3.70;1.00;;;;;;20550098;28;20653;-39
2024/01/20 14:23:35;;;;;;;27.60;12.00;;;3.30;1.00;;;;;;20560426;28;20050;-40
2024/01/20 14:33:36;;;;;;;25.98;10.95;;;3.00;1.00;;;;;;20549326;28;20058;-40
2024/01/20 14:43:37;;;;;;;24.70;11.90;;;2.80;1.00;;;;;;20563589;28;20072;-39
2024/01/20 14:53:38;;;;;;;24.98;11.30;;;2.60;1.00;;;;;;20575009;28;20038;-40
2024/01/20 15:03:38;;;;;;;27.58;12.07;;;2.40;1.00;;;;;;20576513;28;20506;-40
2024/01/20 15:13:39;;;;;;;26.17;11.18;;;2.40;1.00;;;;;;20578127;28;20063;-39
2024/01/20 15:23:40;;;;;;;24.10;11.38;;;2.20;1.00;;;;;;20552413;28;20034;-39
2024/01/20 15:33:40;;;;;;;22.65;11.60;;;2.20;1.00;;;;;;20564730;28;20050;-39
2024/01/20 15:43:41;;;;;;;21.48;10.20;;;2.10;1.00;;;;;;20563633;28;20816;-39
2024/01/20 15:53:44;;;;;;;23.90;9.50;;;2.00;1.00;;;;;;20580368;28;20046;-39
2024/01/20 16:03:44;;;;;;;18.50;9.40;;;1.90;1.00;;;;;;20578694;28;20049;-40
2024/01/20 16:13:45;;;;;;;18.83;9.23;;;1.80;1.00;;;;;;20555375;28;20038;-39
2024/01/20 16:23:46;;;;;;;18.58;8.68;;;1.70;1.00;;;;;;20582505;28;20391;-39
2024/01/20 16:33:46;;;;;;;18.48;8.43;;;1.60;1.00;;;;;;20584099;28;20046;-39
2024/01/20 16:43:47;;;;;;;17.40;9.13;;;1.60;1.00;;;;;;20592545;28;20042;-39
2024/01/20 16:53:48;;;;;;;19.77;9.03;;;1.50;1.00;;;;;;20585133;28;20049;-39
2024/01/20 17:03:49;;;;;;;18.87;8.57;;;1.50;1.00;;;;;;20593814;28;20909;-39
2024/01/20 17:13:51;;;;;;;20.83;9.48;;;1.40;1.00;;;;;;20593807;28;20458;-39
2024/01/20 17:23:52;;;;;;;20.15;9.75;;;1.50;1.00;;;;;;20599755;28;20311;-39
2024/01/20 17:33:52;;;;;;;25.73;11.25;;;1.40;1.00;;;;;;20603354;28;20047;-39
2024/01/20 17:43:53;;;;;;;25.97;12.37;;;1.30;1.00;;;;;;20599531;28;20038;-39
2024/01/20 17:53:54;;;;;;;18.83;9.55;;;1.30;1.00;;;;;;20595576;28;20533;-39
2024/01/20 18:03:55;;;;;;;19.58;10.40;;;1.40;1.00;;;;;;20601026;28;20499;-41
2024/01/20 18:13:57;;;;;;;27.50;10.65;;;1.30;1.00;;;;;;20597268;28;20069;-38
2024/01/20 18:23:58;;;;;;;22.25;10.45;;;1.30;1.00;;;;;;20598155;28;20093;-40
2024/01/20 18:33:59;;;;;;;24.55;11.75;;;1.10;1.00;;;;;;20595774;28;20499;-38
2024/01/20 18:44:00;;;;;;;25.15;11.68;;;1.10;1.00;;;;;;20601634;28;20516;-39
2024/01/20 18:54:00;;;;;;;32.10;13.77;;;1.00;1.00;;;;;;20598871;28;20066;-40
2024/01/20 19:04:01;;;;;;;24.60;12.10;;;1.00;1.00;;;;;;20605544;28;20042;-39
2024/01/20 19:14:03;;;;;;;26.73;11.57;;;0.90;1.00;;;;;;20604766;28;20500;-39
2024/01/20 19:24:07;;;;;;;23.42;10.90;;;0.90;1.00;;;;;;20596752;28;20528;-39
2024/01/20 19:34:09;;;;;;;33.53;12.90;;;1.00;1.00;;;;;;20595514;28;20415;-39
2024/01/20 19:44:09;;;;;;;33.80;14.65;;;1.00;1.00;;;;;;20593434;28;20034;-40
2024/01/20 19:54:11;;;;;;;35.22;15.48;;;1.20;1.00;;;;;;20587554;28;20129;-39
2024/01/20 20:04:17;;;;;;;40.90;17.15;;;1.10;1.00;;;;;;20594465;28;20035;-40
2024/01/20 20:14:22;;;;;;;30.67;14.13;;;1.10;1.00;;;;;;20592555;28;20051;-41
2024/01/20 20:24:24;;;;;;;23.47;10.97;;;1.10;1.00;;;;;;20590652;28;20126;-39
2024/01/20 20:34:24;;;;;;;24.80;12.30;;;1.00;1.00;;;;;;20591306;28;20038;-39
2024/01/20 20:44:25;;;;;;;28.55;12.73;;;0.90;1.00;;;;;;20591561;28;20421;-39
2024/01/20 20:54:26;;;;;;;28.73;11.77;;;0.80;1.00;;;;;;20589192;28;20045;-39
2024/01/20 21:04:26;;;;;;;35.72;15.20;;;0.80;1.00;;;;;;20589887;28;20093;-38
2024/01/20 21:14:27;;;;;;;25.55;11.65;;;0.80;1.00;;;;;;20588267;28;20043;-38
2024/01/20 21:24:28;;;;;;;23.95;10.80;;;0.80;1.00;;;;;;20589156;28;20035;-39
2024/01/20 21:34:29;;;;;;;23.65;11.00;;;1.00;1.00;;;;;;20583860;28;20047;-39
2024/01/20 21:44:30;;;;;;;24.38;10.43;;;0.90;1.00;;;;;;20586218;28;20034;-39
2024/01/20 21:54:31;;;;;;;22.10;10.05;;;1.00;1.00;;;;;;20586198;28;20039;-38
2024/01/20 22:04:32;;;;;;;22.77;10.52;;;0.90;1.00;;;;;;20580994;28;20470;-39
2024/01/20 22:14:32;;;;;;;19.33;9.35;;;1.00;1.00;;;;;;20602750;28;20047;-40
2024/01/20 22:24:33;;;;;;;20.02;9.75;;;1.00;1.00;;;;;;20598372;28;20039;-39
2024/01/20 22:34:34;;;;;;;20.30;9.47;;;1.00;1.00;;;;;;20596007;28;20066;-40
2024/01/20 22:44:34;;;;;;;20.70;9.15;;;1.00;1.00;;;;;;20601807;28;20446;-39
2024/01/20 22:54:35;;;;;;;25.35;10.35;;;1.20;1.00;;;;;;20598076;28;20548;-39
2024/01/20 23:04:36;;;;;;;16.10;7.85;;;1.30;1.00;;;;;;20596103;28;20049;-38
2024/01/20 23:14:37;;;;;;;15.48;7.78;;;1.30;1.00;;;;;;20603268;28;20089;-39
2024/01/20 23:24:38;;;;;;;18.90;7.35;;;1.30;1.00;;;;;;20601338;28;20380;-39
2024/01/20 23:34:39;;;;;;;17.52;7.68;;;1.30;1.00;;;;;;20580349;28;21015;-38
2024/01/20 23:44:40;;;;;;;17.90;8.20;;;1.20;1.00;;;;;;20569383;28;20054;-38
2024/01/20 23:54:41;;;;;;;15.60;7.70;;;1.10;1.00;;;;;;20566072;28;20045;-42
